Time;durP1;ratioP1;P1;durP2;ratioP2;P2;SDS_P1;SDS_P2;PMS_P1;PMS_P2;Temp;Humidity;BMP_temperature;BMP_pressure;BME280_temperature;BME280_humidity;BME280_pressure;Samples;Min_cycle;Max_cycle;Signal;HPM_P1;HPM_P2
2022/04/01 00:01:19;;;;;;;4.30;1.77;;;-0.30;99.90;;;;;;5091791;28;20072;-41
2022/04/01 00:03:45;;;;;;;4.90;1.52;;;-0.20;99.90;;;;;;5091664;28;20042;-44
2022/04/01 00:06:11;;;;;;;7.35;1.40;;;-0.30;99.90;;;;;;5091463;28;20135;-43
2022/04/01 00:08:36;;;;;;;8.38;1.23;;;-0.20;99.90;;;;;;5091687;28;20044;-42
2022/04/01 00:11:02;;;;;;;4.40;1.35;;;0.30;99.90;;;;;;5091410;28;20535;-42
2022/04/01 00:13:28;;;;;;;6.57;1.35;;;-0.30;99.90;;;;;;5091808;28;20043;-42
2022/04/01 00:15:54;;;;;;;2.95;1.42;;;-0.20;99.90;;;;;;5092023;28;20070;-43
2022/04/01 00:18:19;;;;;;;4.90;1.58;;;-0.20;99.90;;;;;;5091895;28;20056;-42
2022/04/01 00:20:45;;;;;;;5.25;1.30;;;-0.20;99.90;;;;;;5092125;28;20428;-41
2022/04/01 00:23:12;;;;;;;4.60;1.30;;;-0.20;99.90;;;;;;5091558;28;20509;-43
2022/04/01 00:25:39;;;;;;;5.43;1.20;;;-0.20;99.90;;;;;;5091977;28;20414;-42
2022/04/01 00:28:05;;;;;;;3.85;1.60;;;-0.20;99.90;;;;;;5091190;28;20048;-42
2022/04/01 00:30:33;;;;;;;5.28;1.23;;;-0.20;99.90;;;;;;5090597;28;20055;-41
2022/04/01 00:33:00;;;;;;;5.03;1.13;;;-0.20;99.90;;;;;;5091471;28;20052;-42
2022/04/01 00:35:26;;;;;;;6.35;1.80;;;-0.20;99.90;;;;;;5091548;28;20055;-41
2022/04/01 00:37:52;;;;;;;4.75;1.17;;;-0.20;99.90;;;;;;5091636;28;20122;-42
2022/04/01 00:40:19;;;;;;;2.75;1.10;;;-0.10;99.90;;;;;;5090991;28;20456;-42
2022/04/01 00:42:45;;;;;;;6.68;1.70;;;-0.20;99.90;;;;;;5091679;28;20051;-43
2022/04/01 00:45:12;;;;;;;6.18;1.60;;;-0.20;99.90;;;;;;5091126;28;20351;-41
2022/04/01 00:47:40;;;;;;;4.05;0.95;;;-0.20;99.90;;;;;;5091005;28;20044;-41
2022/04/01 00:50:07;;;;;;;4.40;1.30;;;-0.20;99.90;;;;;;5091217;28;20127;-42
2022/04/01 00:52:33;;;;;;;3.22;1.30;;;1.60;99.90;;;;;;5072802;28;20688;-41
2022/04/01 00:55:00;;;;;;;3.60;1.52;;;-0.20;99.90;;;;;;5072927;28;20144;-42
2022/04/01 00:57:27;;;;;;;4.88;1.15;;;-0.20;99.90;;;;;;5091262;28;20148;-41
2022/04/01 00:59:54;;;;;;;4.72;1.23;;;-0.20;99.90;;;;;;5091116;28;20036;-41
2022/04/01 01:02:20;;;;;;;4.95;1.45;;;0.00;99.90;;;;;;5090837;28;20052;-42
2022/04/01 01:04:46;;;;;;;3.25;1.23;;;-0.20;99.90;;;;;;5091381;28;20036;-44
2022/04/01 01:07:13;;;;;;;3.92;0.95;;;0.50;99.90;;;;;;5090531;28;20285;-41
2022/04/01 01:09:39;;;;;;;3.38;0.98;;;-0.20;99.90;;;;;;5090664;28;20067;-41
2022/04/01 01:12:06;;;;;;;4.13;1.50;;;-0.10;99.90;;;;;;5090545;28;20405;-41
2022/04/01 01:14:37;;;;;;;5.40;1.10;;;-0.10;99.90;;;;;;5090368;28;20088;-43
2022/04/01 01:17:05;;;;;;;2.40;1.10;;;-0.10;99.90;;;;;;5090833;28;20040;-41
2022/04/01 01:19:31;;;;;;;4.75;0.80;;;-0.10;99.90;;;;;;5090537;28;20044;-42
2022/04/01 01:21:57;;;;;;;3.72;1.27;;;-0.10;99.90;;;;;;5090428;28;20036;-41
2022/04/01 01:24:43;;;;;;;1.92;0.80;;;1.10;99.90;;;;;;5090161;28;20490;-41
2022/04/01 01:27:10;;;;;;;4.35;1.20;;;0.00;99.90;;;;;;5090384;28;20061;-42
2022/04/01 01:29:39;;;;;;;3.10;0.60;;;0.00;99.90;;;;;;5072293;28;20051;-41
2022/04/01 01:32:09;;;;;;;2.60;0.90;;;-0.10;99.90;;;;;;5090709;28;20792;-42
2022/04/01 01:34:35;;;;;;;4.97;0.98;;;0.00;99.90;;;;;;5090458;28;20047;-42
2022/04/01 01:37:03;;;;;;;3.80;1.20;;;-0.10;99.90;;;;;;5090609;28;20458;-41
2022/04/01 01:39:30;;;;;;;1.90;0.70;;;0.00;99.90;;;;;;5089529;28;20048;-41
2022/04/01 01:41:56;;;;;;;3.53;0.95;;;-0.10;99.90;;;;;;5090697;28;20032;-42
2022/04/01 01:44:23;;;;;;;2.05;1.02;;;-0.10;99.90;;;;;;5090387;28;20482;-43
2022/04/01 01:46:49;;;;;;;6.63;1.13;;;0.00;99.90;;;;;;5090749;28;20044;-42
2022/04/01 01:49:15;;;;;;;3.65;0.88;;;-0.10;99.90;;;;;;5072055;28;20131;-41
2022/04/01 01:57:15;;;;;;;2.22;0.80;;;-0.10;99.90;;;;;;5090745;28;20121;-43
2022/04/01 01:59:42;;;;;;;2.28;0.80;;;-0.10;99.90;;;;;;5090321;28;20085;-42
2022/04/01 02:02:08;;;;;;;1.80;0.80;;;-0.20;99.90;;;;;;5090376;28;20043;-41
2022/04/01 02:04:36;;;;;;;5.97;1.02;;;-0.10;99.90;;;;;;5089461;28;20094;-44
2022/04/01 02:07:05;;;;;;;3.33;1.45;;;-0.10;99.90;;;;;;5082500;28;20388;-44
2022/04/01 02:09:31;;;;;;;7.28;0.95;;;-0.20;99.90;;;;;;5089787;28;20052;-44
2022/04/01 02:11:58;;;;;;;3.90;1.00;;;-0.10;99.90;;;;;;5090147;28;20048;-45
2022/04/01 02:14:25;;;;;;;3.78;1.10;;;-0.10;99.90;;;;;;5089297;28;20079;-43
2022/04/01 02:16:51;;;;;;;2.55;0.60;;;-0.10;99.90;;;;;;5089978;28;20052;-42
2022/04/01 02:19:21;;;;;;;2.95;0.90;;;-0.10;99.90;;;;;;5089708;28;20071;-42
2022/04/01 02:21:51;;;;;;;3.60;0.95;;;-0.10;99.90;;;;;;5089820;28;20039;-42
2022/04/01 02:24:22;;;;;;;3.95;1.13;;;0.00;99.90;;;;;;5089893;28;20039;-44
2022/04/01 02:26:48;;;;;;;4.35;1.00;;;0.00;99.90;;;;;;5089918;28;20369;-42
2022/04/01 02:29:19;;;;;;;2.63;1.27;;;-0.10;99.90;;;;;;5089751;28;20040;-43
2022/04/01 02:31:46;;;;;;;2.97;0.90;;;-0.10;99.90;;;;;;5089652;28;20047;-41
2022/04/01 02:34:12;;;;;;;7.13;1.05;;;-0.10;99.90;;;;;;5089617;28;20055;-42
2022/04/01 02:36:38;;;;;;;2.22;0.77;;;-0.10;99.90;;;;;;5089626;28;20385;-42
2022/04/01 02:39:05;;;;;;;4.00;1.00;;;0.20;99.90;;;;;;5088728;28;20428;-43
2022/04/01 02:41:31;;;;;;;3.42;0.85;;;-0.10;99.90;;;;;;5089188;28;20052;-43
2022/04/01 02:44:09;;;;;;;3.47;0.90;;;0.00;99.90;;;;;;5089198;28;20040;-41
2022/04/01 02:46:44;;;;;;;5.72;1.33;;;0.00;99.90;;;;;;5089149;28;20036;-42
2022/04/01 02:49:13;;;;;;;5.07;1.00;;;0.00;99.90;;;;;;5089363;28;20105;-41
2022/04/01 02:51:40;;;;;;;4.82;0.90;;;0.00;99.90;;;;;;5088760;28;20050;-42
2022/04/01 02:54:07;;;;;;;3.05;0.80;;;0.00;99.90;;;;;;5088557;28;20040;-42
2022/04/01 02:56:34;;;;;;;3.55;0.90;;;0.10;99.90;;;;;;5089337;28;20054;-43
2022/04/01 02:59:01;;;;;;;4.40;0.65;;;0.00;99.90;;;;;;5089507;28;20461;-42
2022/04/01 03:01:30;;;;;;;2.00;0.93;;;0.10;99.90;;;;;;5088971;28;20080;-41
2022/04/01 03:03:56;;;;;;;3.30;1.38;;;0.10;99.90;;;;;;5089343;28;20073;-44
2022/04/01 03:06:22;;;;;;;2.80;0.63;;;0.10;99.90;;;;;;5088251;28;20070;-42
2022/04/01 03:08:49;;;;;;;5.10;0.70;;;0.20;99.90;;;;;;5088941;28;20048;-42
2022/04/01 03:11:15;;;;;;;2.85;0.70;;;0.10;99.90;;;;;;5089148;28;20165;-41
2022/04/01 03:13:41;;;;;;;2.40;0.65;;;0.00;99.90;;;;;;5088708;28;20100;-42
2022/04/01 03:16:07;;;;;;;3.05;0.82;;;0.10;99.90;;;;;;5089046;28;20044;-42
2022/04/01 03:18:32;;;;;;;3.63;0.70;;;0.10;99.90;;;;;;5089056;28;20032;-43
2022/04/01 03:20:58;;;;;;;3.53;0.82;;;0.10;99.90;;;;;;5089282;28;20044;-41
2022/04/01 03:23:24;;;;;;;4.13;0.90;;;0.10;99.90;;;;;;5089453;28;20044;-41
2022/04/01 03:25:52;;;;;;;4.22;0.80;;;0.10;99.90;;;;;;5088942;28;20040;-41
2022/04/01 03:28:18;;;;;;;2.42;1.30;;;0.10;99.90;;;;;;5089503;28;20032;-42
2022/04/01 03:30:44;;;;;;;3.88;0.60;;;0.10;99.90;;;;;;5089168;28;20123;-43
2022/04/01 03:33:10;;;;;;;3.22;0.93;;;0.10;99.90;;;;;;5071275;28;20465;-42
2022/04/01 03:35:35;;;;;;;2.72;0.75;;;0.10;99.90;;;;;;5089029;28;20374;-43
2022/04/01 03:38:01;;;;;;;3.03;0.80;;;0.10;99.90;;;;;;5089213;28;20096;-41
2022/04/01 03:40:30;;;;;;;3.30;1.00;;;0.10;99.90;;;;;;5088616;28;20490;-43
2022/04/01 03:42:56;;;;;;;4.85;1.30;;;0.00;99.90;;;;;;5089078;28;20097;-42
2022/04/01 03:45:22;;;;;;;2.85;0.70;;;0.00;99.90;;;;;;5088866;28;20557;-41
2022/04/01 03:48:04;;;;;;;2.67;0.70;;;0.00;99.90;;;;;;5089027;28;20044;-42
2022/04/01 03:50:34;;;;;;;2.50;0.75;;;0.00;99.90;;;;;;5089053;28;20051;-41
2022/04/01 03:53:02;;;;;;;2.85;0.98;;;0.00;99.90;;;;;;5088856;28;20047;-42
2022/04/01 03:55:31;;;;;;;1.83;0.70;;;1.60;99.90;;;;;;5088698;28;20048;-41
2022/04/01 03:58:05;;;;;;;2.97;0.88;;;0.00;99.90;;;;;;5070120;28;20052;-42
2022/04/01 04:00:32;;;;;;;2.80;0.95;;;-2.20;99.90;;;;;;5088920;28;20052;-40
2022/04/01 04:02:58;;;;;;;1.92;0.73;;;1.70;99.90;;;;;;5088034;28;20129;-42
2022/04/01 04:05:26;;;;;;;3.20;1.00;;;0.10;99.90;;;;;;5090665;28;20127;-41
2022/04/01 04:07:52;;;;;;;2.88;0.95;;;0.00;99.90;;;;;;5073876;28;20043;-44
2022/04/01 04:10:17;;;;;;;5.03;1.40;;;0.00;99.90;;;;;;5092513;28;20067;-43
2022/04/01 04:12:44;;;;;;;4.65;1.13;;;0.00;99.90;;;;;;5092114;28;20123;-41
2022/04/01 04:15:10;;;;;;;5.25;1.20;;;0.40;99.90;;;;;;5091198;28;20044;-36
2022/04/01 04:17:36;;;;;;;7.65;1.10;;;0.00;99.90;;;;;;5087914;28;20036;-36
2022/04/01 04:20:08;;;;;;;4.68;1.05;;;0.00;99.90;;;;;;5088616;28;20059;-36
2022/04/01 04:23:12;;;;;;;5.27;0.80;;;0.10;99.90;;;;;;5091491;28;20071;-41
2022/04/01 04:25:39;;;;;;;4.35;1.00;;;0.00;99.90;;;;;;5075189;28;20056;-39
2022/04/01 04:28:10;;;;;;;4.30;0.88;;;-0.10;99.90;;;;;;5093456;28;20043;-45
2022/04/01 04:30:43;;;;;;;3.30;1.00;;;-0.10;99.90;;;;;;5091754;28;20142;-39
2022/04/01 04:33:10;;;;;;;3.08;0.85;;;-0.10;99.90;;;;;;5091356;28;20044;-36
2022/04/01 04:35:38;;;;;;;1.98;0.73;;;-0.10;99.90;;;;;;5091382;28;20044;-36
2022/04/01 04:38:05;;;;;;;2.20;0.70;;;-0.10;99.90;;;;;;5091269;28;20048;-32
2022/04/01 04:40:31;;;;;;;2.88;0.60;;;-0.10;99.90;;;;;;5091373;28;20044;-34
2022/04/01 04:42:58;;;;;;;2.75;0.77;;;-0.10;99.90;;;;;;5092214;28;20044;-34
2022/04/01 04:45:26;;;;;;;2.65;0.63;;;-0.10;99.90;;;;;;5091270;28;20039;-36
2022/04/01 04:47:53;;;;;;;4.30;0.98;;;-0.10;99.90;;;;;;5090810;28;20363;-34
2022/04/01 04:50:19;;;;;;;3.45;0.93;;;-0.10;99.90;;;;;;5091146;28;20040;-34
2022/04/01 04:52:48;;;;;;;2.75;0.77;;;-0.10;99.90;;;;;;5091535;28;20390;-33
2022/04/01 04:55:17;;;;;;;7.75;0.80;;;-0.10;99.90;;;;;;5090976;28;20123;-34
2022/04/01 04:57:44;;;;;;;2.33;0.50;;;-0.10;99.90;;;;;;5090911;28;20047;-33
2022/04/01 05:00:10;;;;;;;6.47;0.88;;;-0.10;99.90;;;;;;5091437;28;20051;-33
2022/04/01 05:03:06;;;;;;;3.35;0.57;;;0.00;99.90;;;;;;5090583;28;20381;-34
2022/04/01 05:05:58;;;;;;;2.38;0.50;;;0.00;99.90;;;;;;5089406;28;20502;-35
2022/04/01 05:08:54;;;;;;;4.03;1.10;;;0.00;99.90;;;;;;5084963;28;20048;-36
2022/04/01 05:11:48;;;;;;;1.42;0.40;;;0.00;99.90;;;;;;5091388;28;20028;-38
2022/04/01 05:14:35;;;;;;;2.80;0.40;;;0.00;99.90;;;;;;5091302;28;20512;-35
2022/04/01 05:17:02;;;;;;;2.95;0.40;;;0.00;99.90;;;;;;5090426;28;20071;-35
2022/04/01 05:19:30;;;;;;;3.05;0.80;;;0.10;99.90;;;;;;5090710;28;20362;-34
2022/04/01 05:22:15;;;;;;;3.28;0.65;;;0.00;99.90;;;;;;5090737;28;20360;-34
2022/04/01 05:24:52;;;;;;;2.85;0.60;;;0.10;99.90;;;;;;5090592;28;20051;-35
2022/04/01 05:27:21;;;;;;;3.28;0.60;;;0.10;99.90;;;;;;5090593;28;20085;-34
2022/04/01 05:30:13;;;;;;;5.00;0.82;;;0.10;99.90;;;;;;5090439;28;20040;-34
2022/04/01 05:32:44;;;;;;;4.18;0.68;;;0.20;99.90;;;;;;5090240;28;20051;-34
2022/04/01 05:35:10;;;;;;;2.75;0.85;;;0.20;99.90;;;;;;5090495;28;20044;-34
2022/04/01 05:37:36;;;;;;;3.70;0.77;;;0.20;99.90;;;;;;5090732;28;20036;-34
2022/04/01 05:40:07;;;;;;;2.38;0.55;;;0.20;99.90;;;;;;5090791;28;20091;-35
2022/04/01 05:42:33;;;;;;;3.15;0.70;;;0.30;99.90;;;;;;5090472;28;20051;-34
2022/04/01 05:45:01;;;;;;;5.03;0.73;;;0.30;99.90;;;;;;5085733;28;20064;-34
2022/04/01 05:47:30;;;;;;;2.47;0.88;;;1.40;99.90;;;;;;5090471;28;20040;-34
2022/04/01 05:49:58;;;;;;;3.78;0.57;;;0.40;99.90;;;;;;5090263;28;20445;-34
2022/04/01 05:52:24;;;;;;;3.78;0.55;;;0.40;99.90;;;;;;5090099;28;20055;-34
2022/04/01 05:54:51;;;;;;;2.55;0.40;;;0.40;99.90;;;;;;5089803;28;20055;-34
2022/04/01 05:57:19;;;;;;;3.50;0.60;;;0.50;99.90;;;;;;5090151;28;20046;-34
2022/04/01 05:59:45;;;;;;;5.63;1.38;;;0.60;99.90;;;;;;5089998;28;20764;-34
2022/04/01 06:02:14;;;;;;;5.78;0.60;;;0.60;99.90;;;;;;5089952;28;20563;-34
2022/04/01 06:04:49;;;;;;;4.95;1.10;;;0.60;99.90;;;;;;5090618;28;20412;-34
2022/04/01 06:07:36;;;;;;;4.68;0.52;;;0.70;99.90;;;;;;5089986;28;20058;-35
2022/04/01 06:10:21;;;;;;;3.05;1.40;;;0.70;99.90;;;;;;5090061;28;20181;-34
2022/04/01 06:13:08;;;;;;;5.25;0.60;;;0.80;99.90;;;;;;5089841;28;20063;-34
2022/04/01 06:15:53;;;;;;;4.13;0.68;;;0.80;99.90;;;;;;5090119;28;20036;-34
2022/04/01 06:18:53;;;;;;;4.65;0.93;;;1.00;99.90;;;;;;5089857;28;20044;-34
2022/04/01 06:21:27;;;;;;;3.17;1.17;;;0.90;99.90;;;;;;5089480;28;20044;-34
2022/04/01 06:24:02;;;;;;;4.20;0.40;;;1.00;99.90;;;;;;5089869;28;20039;-35
2022/04/01 06:26:30;;;;;;;3.67;0.82;;;1.00;99.90;;;;;;5089996;28;20040;-34
2022/04/01 06:29:00;;;;;;;1.85;0.52;;;1.00;99.90;;;;;;5088705;28;20043;-34
2022/04/01 06:31:29;;;;;;;3.28;0.73;;;1.00;99.90;;;;;;5089981;28;20047;-34
2022/04/01 06:34:21;;;;;;;2.03;0.60;;;1.10;99.90;;;;;;5089498;28;20359;-34
2022/04/01 06:37:02;;;;;;;5.18;0.68;;;1.20;99.90;;;;;;5089790;28;20136;-34
2022/04/01 06:39:46;;;;;;;5.82;0.82;;;1.90;99.90;;;;;;5089844;28;20104;-34
2022/04/01 06:42:20;;;;;;;4.35;0.82;;;1.10;99.90;;;;;;5089729;28;20036;-34
2022/04/01 06:44:47;;;;;;;2.17;0.60;;;1.20;99.90;;;;;;5090121;28;20074;-34
2022/04/01 06:47:13;;;;;;;3.75;0.70;;;1.20;99.90;;;;;;5089607;28;20147;-34
2022/04/01 06:49:39;;;;;;;4.93;0.98;;;1.20;99.90;;;;;;5089290;28;20044;-34
2022/04/01 06:52:05;;;;;;;6.65;0.52;;;1.30;99.90;;;;;;5089222;28;20052;-34
2022/04/01 06:54:31;;;;;;;2.58;0.60;;;1.30;99.90;;;;;;5088281;28;20050;-35
2022/04/01 06:56:56;;;;;;;3.30;1.27;;;1.90;99.90;;;;;;5089409;28;20382;-34
2022/04/01 06:59:22;;;;;;;4.15;0.63;;;1.30;99.90;;;;;;5088607;28;20519;-34
2022/04/01 07:01:48;;;;;;;1.90;0.63;;;1.20;99.90;;;;;;5089107;28;20040;-35
2022/04/01 07:04:14;;;;;;;7.03;0.77;;;1.20;99.90;;;;;;5088615;28;20481;-34
2022/04/01 07:06:40;;;;;;;2.55;0.63;;;1.30;99.90;;;;;;5088693;28;20048;-34
2022/04/01 07:09:06;;;;;;;3.88;1.20;;;1.20;99.90;;;;;;5088170;28;20488;-34
2022/04/01 07:11:32;;;;;;;3.17;0.60;;;1.30;99.90;;;;;;5088834;28;20044;-34
2022/04/01 07:13:58;;;;;;;3.97;0.70;;;1.30;99.90;;;;;;5088764;28;20052;-34
2022/04/01 07:16:24;;;;;;;5.18;0.50;;;1.30;99.90;;;;;;5088510;28;20402;-34
2022/04/01 07:18:50;;;;;;;3.58;0.52;;;1.40;99.90;;;;;;5088732;28;20047;-34
2022/04/01 07:21:16;;;;;;;3.58;0.63;;;1.40;99.90;;;;;;5089056;28;20044;-34
2022/04/01 07:23:42;;;;;;;4.30;0.70;;;1.40;99.90;;;;;;5089094;28;20458;-34
2022/04/01 07:26:09;;;;;;;2.40;0.60;;;1.30;99.90;;;;;;5088407;28;20087;-34
2022/04/01 07:28:34;;;;;;;3.40;0.93;;;1.40;99.90;;;;;;5088852;28;20071;-34
2022/04/01 07:32:28;;;;;;;2.97;0.60;;;1.40;99.90;;;;;;5088792;28;20082;-34
2022/04/01 07:33:46;;;;;;;6.50;0.73;;;1.50;99.90;;;;;;5088668;28;20076;-34
2022/04/01 07:36:12;;;;;;;2.55;0.80;;;1.50;99.90;;;;;;5088705;28;20075;-34
2022/04/01 07:38:39;;;;;;;3.38;0.70;;;1.50;99.90;;;;;;5088074;28;20040;-34
2022/04/01 07:41:05;;;;;;;4.65;0.60;;;1.60;99.90;;;;;;5092216;28;20036;-34
2022/04/01 07:43:31;;;;;;;6.32;0.98;;;1.50;99.90;;;;;;5093151;28;20511;-34
2022/04/01 07:45:57;;;;;;;2.47;0.90;;;1.50;99.90;;;;;;5092548;28;20075;-34
2022/04/01 07:48:23;;;;;;;3.22;0.75;;;1.50;99.90;;;;;;5092580;28;20031;-33
2022/04/01 07:50:49;;;;;;;1.75;0.82;;;1.60;99.90;;;;;;5092547;28;20055;-34
2022/04/01 07:53:16;;;;;;;3.67;0.73;;;1.70;99.90;;;;;;5092723;28;20040;-34
2022/04/01 07:55:43;;;;;;;6.32;1.17;;;1.80;99.90;;;;;;5092438;28;20044;-34
2022/04/01 07:58:12;;;;;;;4.63;1.25;;;1.90;99.90;;;;;;5092086;28;20051;-34
2022/04/01 08:00:38;;;;;;;4.30;1.05;;;1.90;99.90;;;;;;5092462;28;20040;-34
2022/04/01 08:03:04;;;;;;;4.97;1.40;;;2.00;99.90;;;;;;5092246;28;20681;-34
2022/04/01 08:05:29;;;;;;;6.20;1.70;;;2.10;99.90;;;;;;5092180;28;20048;-34
2022/04/01 08:07:55;;;;;;;4.68;2.10;;;2.10;99.90;;;;;;5092246;28;20398;-34
2022/04/01 08:10:21;;;;;;;5.15;1.70;;;2.20;99.90;;;;;;5092075;28;20044;-34
2022/04/01 08:12:46;;;;;;;4.03;1.60;;;2.40;99.90;;;;;;5091840;28;20040;-34
2022/04/01 08:15:13;;;;;;;3.30;1.80;;;2.40;99.90;;;;;;5091607;28;20051;-34
2022/04/01 08:17:39;;;;;;;6.75;2.25;;;2.40;99.90;;;;;;5091904;28;20546;-34
2022/04/01 08:20:05;;;;;;;5.28;2.15;;;2.60;99.90;;;;;;5091952;28;20126;-34
2022/04/01 08:22:31;;;;;;;8.63;2.72;;;2.70;99.90;;;;;;5091537;28;20513;-34
2022/04/01 08:24:56;;;;;;;6.35;3.17;;;2.70;99.90;;;;;;5091841;28;20048;-34
2022/04/01 08:27:22;;;;;;;7.90;2.92;;;2.80;99.90;;;;;;5091468;28;20496;-34
2022/04/01 08:29:48;;;;;;;4.40;2.50;;;2.80;99.90;;;;;;5091265;28;20039;-34
2022/04/01 08:32:13;;;;;;;5.57;3.20;;;3.00;99.90;;;;;;5091555;28;20075;-34
2022/04/01 08:34:39;;;;;;;5.45;3.25;;;2.90;99.90;;;;;;5091840;28;20081;-34
2022/04/01 08:37:07;;;;;;;6.88;3.30;;;2.90;99.90;;;;;;5091741;28;20431;-34
2022/04/01 08:39:34;;;;;;;6.63;3.33;;;2.90;99.90;;;;;;5082785;28;20048;-34
2022/04/01 08:42:01;;;;;;;5.75;3.10;;;3.10;99.90;;;;;;5091854;28;20442;-34
2022/04/01 08:44:27;;;;;;;6.63;3.00;;;3.00;99.90;;;;;;5091294;28;20036;-34
2022/04/01 08:46:54;;;;;;;6.72;2.88;;;3.10;99.90;;;;;;5091563;28;20381;-34
2022/04/01 08:49:20;;;;;;;5.55;3.03;;;3.10;99.90;;;;;;5091150;28;20456;-34
2022/04/01 08:51:46;;;;;;;8.93;3.33;;;3.30;99.90;;;;;;5090587;28;20054;-34
2022/04/01 08:54:12;;;;;;;5.32;3.53;;;3.10;99.90;;;;;;5091566;28;20040;-34
2022/04/01 08:56:38;;;;;;;5.70;2.95;;;3.20;99.90;;;;;;5091824;28;20044;-34
2022/04/01 08:59:04;;;;;;;8.73;3.83;;;1.00;99.90;;;;;;5091513;28;20084;-34
2022/04/01 09:01:40;;;;;;;6.80;3.63;;;3.10;99.90;;;;;;5091328;28;20704;-34
2022/04/01 09:04:23;;;;;;;5.28;3.40;;;3.30;99.90;;;;;;5091311;28;20409;-34
2022/04/01 09:06:53;;;;;;;9.77;4.07;;;3.10;99.90;;;;;;5091079;28;20052;-34
2022/04/01 09:09:27;;;;;;;7.13;3.70;;;3.10;99.90;;;;;;5090881;28;20044;-34
2022/04/01 09:12:15;;;;;;;7.75;3.00;;;3.00;99.90;;;;;;5091301;28;20047;-34
2022/04/01 09:14:49;;;;;;;8.20;3.25;;;2.90;99.90;;;;;;5091342;28;20552;-34
2022/04/01 09:17:15;;;;;;;6.43;3.60;;;2.90;99.90;;;;;;5091408;28;20717;-34
2022/04/01 09:19:41;;;;;;;8.90;3.47;;;2.80;99.90;;;;;;5072790;28;20102;-34
2022/04/01 09:22:20;;;;;;;5.85;3.30;;;2.80;99.90;;;;;;5091032;28;20040;-34
2022/04/01 09:24:56;;;;;;;6.10;3.22;;;2.90;99.90;;;;;;5090894;28;20123;-34
2022/04/01 09:27:42;;;;;;;7.03;3.67;;;2.80;99.90;;;;;;5090899;28;20111;-34
2022/04/01 09:30:23;;;;;;;7.40;4.25;;;2.80;99.90;;;;;;5091014;28;20071;-34
2022/04/01 09:32:52;;;;;;;7.57;4.35;;;3.10;99.90;;;;;;5090899;28;20525;-34
2022/04/01 09:35:22;;;;;;;6.65;3.65;;;3.30;99.90;;;;;;5090606;28;20051;-34
2022/04/01 09:37:50;;;;;;;7.03;3.95;;;3.20;99.90;;;;;;5090736;28;20045;-34
2022/04/01 09:40:20;;;;;;;5.82;3.75;;;3.30;99.90;;;;;;5090451;28;20050;-34
2022/04/01 09:42:51;;;;;;;8.00;3.85;;;3.20;99.90;;;;;;5091180;28;20067;-34
2022/04/01 09:45:23;;;;;;;6.95;3.72;;;3.20;99.90;;;;;;5090988;28;20375;-34
2022/04/01 09:48:07;;;;;;;8.57;4.30;;;3.40;99.90;;;;;;5091238;28;20032;-34
2022/04/01 09:50:35;;;;;;;7.22;3.80;;;3.60;99.90;;;;;;5090982;28;20611;-34
2022/04/01 09:53:17;;;;;;;7.80;4.43;;;3.50;99.90;;;;;;5091025;28;20044;-34
2022/04/01 09:55:46;;;;;;;5.50;3.88;;;3.60;99.90;;;;;;5090633;28;20097;-34
2022/04/01 09:58:12;;;;;;;7.35;3.90;;;3.80;99.90;;;;;;5091078;28;20044;-34
2022/04/01 10:00:40;;;;;;;6.15;3.20;;;3.60;99.90;;;;;;5090426;28;20040;-34
2022/04/01 10:03:09;;;;;;;6.43;3.00;;;3.70;99.90;;;;;;5090745;28;20036;-34
2022/04/01 10:05:36;;;;;;;5.20;3.22;;;3.70;99.90;;;;;;5090094;28;20052;-34
2022/04/01 10:08:05;;;;;;;7.93;3.65;;;3.90;99.90;;;;;;5090446;28;20044;-34
2022/04/01 10:10:31;;;;;;;6.15;3.10;;;3.70;99.90;;;;;;5090391;28;20036;-34
2022/04/01 10:13:09;;;;;;;5.43;2.63;;;3.60;99.90;;;;;;5090388;28;20047;-34
2022/04/01 10:15:36;;;;;;;6.05;2.60;;;3.50;99.90;;;;;;5071967;28;20604;-34
2022/04/01 10:18:02;;;;;;;4.40;2.40;;;3.40;99.90;;;;;;5089922;28;20051;-34
2022/04/01 10:20:34;;;;;;;3.90;2.25;;;3.40;99.90;;;;;;5089645;28;20075;-34
2022/04/01 10:23:04;;;;;;;2.60;1.15;;;3.30;99.90;;;;;;5090209;28;20115;-34
2022/04/01 10:25:47;;;;;;;3.88;1.20;;;3.30;99.90;;;;;;5089905;28;20032;-34
2022/04/01 10:28:13;;;;;;;5.35;1.40;;;3.10;99.90;;;;;;5090153;28;20054;-34
2022/04/01 10:30:40;;;;;;;3.15;1.33;;;3.10;99.90;;;;;;5089688;28;20050;-34
2022/04/01 10:33:07;;;;;;;2.60;1.48;;;3.10;99.90;;;;;;5089960;28;20075;-34
2022/04/01 10:35:35;;;;;;;5.90;1.50;;;3.00;99.90;;;;;;5089731;28;20036;-34
2022/04/01 10:38:07;;;;;;;3.70;1.33;;;3.10;99.90;;;;;;5071539;28;20565;-34
2022/04/01 10:40:35;;;;;;;2.53;1.00;;;3.20;99.90;;;;;;5089425;28;20123;-34
2022/04/01 10:43:19;;;;;;;4.43;1.08;;;3.10;99.90;;;;;;5089807;28;20078;-34
2022/04/01 10:46:06;;;;;;;2.95;1.02;;;3.20;99.90;;;;;;5089642;28;20098;-34
2022/04/01 10:51:37;;;;;;;5.20;1.33;;;3.10;99.90;;;;;;5089060;28;20532;-34
2022/04/01 10:54:12;;;;;;;4.32;1.63;;;2.90;99.90;;;;;;5089639;28;20036;-34
2022/04/01 10:56:39;;;;;;;3.97;2.33;;;3.00;99.90;;;;;;5089255;28;20049;-34
2022/04/01 10:59:15;;;;;;;3.65;1.42;;;3.10;99.90;;;;;;5089501;28;20409;-34
2022/04/01 11:01:52;;;;;;;5.15;2.20;;;3.20;99.90;;;;;;5089459;28;20040;-34
2022/04/01 11:04:18;;;;;;;7.40;1.95;;;3.10;99.90;;;;;;5089127;28;20097;-34
2022/04/01 11:06:57;;;;;;;3.58;2.00;;;3.10;99.90;;;;;;5089006;28;20063;-34
2022/04/01 11:09:46;;;;;;;8.05;1.65;;;3.30;99.90;;;;;;5089486;28;20047;-34
2022/04/01 11:12:14;;;;;;;3.65;1.42;;;3.40;99.90;;;;;;5089621;28;20047;-34
2022/04/01 11:14:59;;;;;;;3.17;1.45;;;3.40;99.90;;;;;;5088438;28;20100;-34
2022/04/01 11:17:34;;;;;;;4.03;1.58;;;3.70;99.90;;;;;;5089394;28;20048;-34
2022/04/01 11:20:10;;;;;;;5.05;1.27;;;3.70;99.90;;;;;;5089087;28;20048;-34
2022/04/01 11:22:42;;;;;;;3.20;1.20;;;3.90;99.90;;;;;;5088905;28;20039;-34
2022/04/01 11:25:12;;;;;;;2.90;1.15;;;4.00;99.90;;;;;;5089146;28;20116;-34
2022/04/01 11:28:02;;;;;;;5.57;1.90;;;4.00;99.90;;;;;;5088932;28;20040;-34
2022/04/01 11:30:29;;;;;;;7.22;1.10;;;4.10;99.90;;;;;;5088701;28;20048;-34
2022/04/01 11:32:57;;;;;;;2.80;1.45;;;4.00;99.90;;;;;;5088585;28;20506;-34
2022/04/01 11:35:28;;;;;;;6.85;1.40;;;4.10;99.90;;;;;;5089005;28;20044;-34
2022/04/01 11:37:54;;;;;;;5.13;0.90;;;4.00;99.90;;;;;;5089240;28;20048;-34
2022/04/01 11:40:26;;;;;;;4.32;1.30;;;4.00;99.90;;;;;;5088485;28;20063;-34
2022/04/01 11:42:59;;;;;;;3.85;1.33;;;4.00;99.90;;;;;;5088885;28;20072;-34
2022/04/01 11:45:33;;;;;;;3.97;1.40;;;3.70;99.90;;;;;;5088624;28;20090;-34
2022/04/01 11:47:59;;;;;;;3.40;0.60;;;5.10;99.90;;;;;;5088602;28;20043;-34
2022/04/01 11:50:26;;;;;;;2.95;1.30;;;3.90;99.90;;;;;;5088569;28;20501;-34
2022/04/01 11:52:57;;;;;;;2.10;0.60;;;3.90;99.90;;;;;;5088247;28;20044;-34
2022/04/01 11:55:26;;;;;;;2.13;0.57;;;3.90;99.90;;;;;;5088844;28;20099;-34
2022/04/01 11:57:53;;;;;;;4.40;0.80;;;3.90;99.90;;;;;;5088938;28;20205;-34
2022/04/01 12:00:22;;;;;;;1.50;0.60;;;3.90;99.90;;;;;;5088779;28;20405;-35
2022/04/01 12:02:51;;;;;;;2.42;0.80;;;4.00;99.90;;;;;;5088680;28;20041;-34
2022/04/01 12:05:17;;;;;;;3.17;0.70;;;4.10;99.90;;;;;;5088027;28;20064;-34
2022/04/01 12:10:40;;;;;;;2.78;0.88;;;4.00;99.90;;;;;;5088824;28;20138;-34
2022/04/01 12:13:09;;;;;;;2.58;0.80;;;3.80;99.90;;;;;;5089178;28;20686;-34
2022/04/01 12:15:38;;;;;;;2.35;1.45;;;3.80;99.90;;;;;;5088893;28;20387;-34
2022/04/01 12:18:09;;;;;;;2.83;1.20;;;4.00;99.90;;;;;;5088998;28;20071;-34
2022/04/01 12:20:39;;;;;;;2.60;0.65;;;4.10;99.90;;;;;;5088694;28;20441;-34
2022/04/01 12:23:06;;;;;;;3.15;0.88;;;4.30;99.90;;;;;;5070876;28;20371;-34
2022/04/01 12:25:34;;;;;;;2.72;1.02;;;4.50;99.90;;;;;;5088966;28;20381;-34
2022/04/01 12:28:04;;;;;;;1.90;0.70;;;4.60;99.90;;;;;;5092014;28;20731;-34
2022/04/01 12:30:46;;;;;;;3.65;0.70;;;4.70;99.90;;;;;;5092859;28;20047;-34
2022/04/01 12:33:16;;;;;;;2.45;0.90;;;4.70;99.90;;;;;;5091944;28;20043;-34
2022/04/01 12:35:58;;;;;;;3.00;1.20;;;4.80;99.90;;;;;;5091733;28;20048;-34
2022/04/01 12:38:26;;;;;;;3.38;0.80;;;4.90;99.90;;;;;;5091587;28;20111;-34
2022/04/01 12:40:57;;;;;;;6.15;1.35;;;4.90;99.90;;;;;;5091434;28;20111;-34
2022/04/01 12:43:43;;;;;;;6.68;1.17;;;5.00;99.90;;;;;;5091985;28;20359;-34
2022/04/01 12:46:10;;;;;;;4.32;1.23;;;7.10;99.90;;;;;;5091878;28;20109;-34
2022/04/01 12:48:41;;;;;;;1.70;0.80;;;4.80;99.90;;;;;;5091893;28;20043;-34
2022/04/01 12:51:06;;;;;;;4.38;0.88;;;5.10;99.90;;;;;;5091642;28;20032;-34
2022/04/01 12:53:36;;;;;;;2.58;0.63;;;4.90;99.90;;;;;;5091914;28;20481;-34
2022/04/01 12:56:19;;;;;;;4.53;1.30;;;4.70;99.90;;;;;;5091240;28;20040;-34
2022/04/01 12:58:53;;;;;;;2.50;0.77;;;4.90;99.90;;;;;;5091603;28;20052;-34
2022/04/01 13:01:26;;;;;;;5.07;0.93;;;4.80;99.90;;;;;;5091385;28;20576;-34
2022/04/01 13:03:53;;;;;;;1.90;0.90;;;4.80;99.90;;;;;;5091067;28;20040;-34
2022/04/01 13:06:23;;;;;;;2.78;0.68;;;4.70;99.90;;;;;;5091119;28;20133;-35
2022/04/01 13:09:09;;;;;;;2.83;0.90;;;4.60;99.90;;;;;;5091247;28;20527;-34
2022/04/01 13:11:44;;;;;;;3.92;0.98;;;4.70;99.90;;;;;;5091066;28;20044;-34
2022/04/01 13:14:25;;;;;;;2.88;1.00;;;4.70;99.90;;;;;;5091369;28;20080;-35
2022/04/01 13:16:53;;;;;;;2.60;0.82;;;4.70;99.90;;;;;;5091257;28;20044;-34
2022/04/01 13:19:28;;;;;;;3.03;0.70;;;4.90;99.90;;;;;;5072857;28;20044;-34
2022/04/01 13:21:59;;;;;;;4.85;1.95;;;4.90;99.90;;;;;;5091041;28;20036;-34